sensor_id;sensor_type;location;lat;lon;timestamp;P1;durP1;ratioP1;P2;durP2;ratioP2
69588;SDS011;56792;50.644;17.984;2024-02-21T00:00:56;17.30;;;6.80;;
69588;SDS011;56792;50.644;17.984;2024-02-21T00:03:27;14.00;;;7.10;;
69588;SDS011;56792;50.644;17.984;2024-02-21T00:05:59;15.10;;;7.50;;
69588;SDS011;56792;50.644;17.984;2024-02-21T00:08:30;21.50;;;8.90;;
69588;SDS011;56792;50.644;17.984;2024-02-21T00:11:02;13.80;;;6.50;;
69588;SDS011;56792;50.644;17.984;2024-02-21T00:13:34;14.60;;;6.90;;
69588;SDS011;56792;50.644;17.984;2024-02-21T00:16:06;17.30;;;7.30;;
69588;SDS011;56792;50.644;17.984;2024-02-21T00:18:39;17.70;;;7.50;;
69588;SDS011;56792;50.644;17.984;2024-02-21T00:21:10;19.90;;;7.80;;
69588;SDS011;56792;50.644;17.984;2024-02-21T00:23:46;18.00;;;7.90;;
69588;SDS011;56792;50.644;17.984;2024-02-21T00:26:18;22.10;;;8.60;;
69588;SDS011;56792;50.644;17.984;2024-02-21T00:28:50;15.40;;;7.70;;
69588;SDS011;56792;50.644;17.984;2024-02-21T00:31:21;14.70;;;7.40;;
69588;SDS011;56792;50.644;17.984;2024-02-21T00:33:53;15.20;;;7.40;;
69588;SDS011;56792;50.644;17.984;2024-02-21T00:36:24;14.20;;;6.80;;
69588;SDS011;56792;50.644;17.984;2024-02-21T00:38:56;15.30;;;6.90;;
69588;SDS011;56792;50.644;17.984;2024-02-21T00:41:27;13.00;;;6.00;;
69588;SDS011;56792;50.644;17.984;2024-02-21T00:43:59;15.30;;;6.40;;
69588;SDS011;56792;50.644;17.984;2024-02-21T00:46:30;14.50;;;6.30;;
69588;SDS011;56792;50.644;17.984;2024-02-21T00:49:02;15.50;;;7.90;;
69588;SDS011;56792;50.644;17.984;2024-02-21T00:51:34;14.80;;;6.50;;
69588;SDS011;56792;50.644;17.984;2024-02-21T00:54:05;14.40;;;6.50;;
69588;SDS011;56792;50.644;17.984;2024-02-21T00:56:37;15.10;;;7.60;;
69588;SDS011;56792;50.644;17.984;2024-02-21T00:59:08;17.10;;;7.40;;
69588;SDS011;56792;50.644;17.984;2024-02-21T01:01:40;14.40;;;6.20;;
69588;SDS011;56792;50.644;17.984;2024-02-21T01:04:12;16.60;;;6.80;;
69588;SDS011;56792;50.644;17.984;2024-02-21T01:06:44;11.20;;;6.20;;
69588;SDS011;56792;50.644;17.984;2024-02-21T01:09:15;11.80;;;5.80;;
69588;SDS011;56792;50.644;17.984;2024-02-21T01:11:47;12.00;;;5.60;;
69588;SDS011;56792;50.644;17.984;2024-02-21T01:14:18;12.70;;;5.60;;
69588;SDS011;56792;50.644;17.984;2024-02-21T01:16:50;11.30;;;6.00;;
69588;SDS011;56792;50.644;17.984;2024-02-21T01:19:22;15.50;;;6.50;;
69588;SDS011;56792;50.644;17.984;2024-02-21T01:21:53;11.40;;;5.80;;
69588;SDS011;56792;50.644;17.984;2024-02-21T01:24:25;11.70;;;5.20;;
69588;SDS011;56792;50.644;17.984;2024-02-21T01:26:56;10.50;;;5.20;;
69588;SDS011;56792;50.644;17.984;2024-02-21T01:29:28;11.60;;;5.90;;
69588;SDS011;56792;50.644;17.984;2024-02-21T01:31:59;10.30;;;5.10;;
69588;SDS011;56792;50.644;17.984;2024-02-21T01:34:31;14.50;;;6.10;;
69588;SDS011;56792;50.644;17.984;2024-02-21T01:37:02;13.00;;;6.00;;
69588;SDS011;56792;50.644;17.984;2024-02-21T01:39:35;13.10;;;6.20;;
69588;SDS011;56792;50.644;17.984;2024-02-21T01:42:07;11.70;;;6.60;;
69588;SDS011;56792;50.644;17.984;2024-02-21T01:44:38;11.40;;;5.80;;
69588;SDS011;56792;50.644;17.984;2024-02-21T01:47:11;11.70;;;6.70;;
69588;SDS011;56792;50.644;17.984;2024-02-21T01:49:44;13.80;;;6.40;;
69588;SDS011;56792;50.644;17.984;2024-02-21T01:52:17;12.60;;;5.50;;
69588;SDS011;56792;50.644;17.984;2024-02-21T01:54:49;15.80;;;6.20;;
69588;SDS011;56792;50.644;17.984;2024-02-21T01:57:21;14.20;;;6.00;;
69588;SDS011;56792;50.644;17.984;2024-02-21T01:59:54;13.70;;;7.20;;
69588;SDS011;56792;50.644;17.984;2024-02-21T02:02:26;14.00;;;6.10;;
69588;SDS011;56792;50.644;17.984;2024-02-21T02:04:57;10.00;;;6.70;;
69588;SDS011;56792;50.644;17.984;2024-02-21T02:07:30;13.40;;;6.40;;
69588;SDS011;56792;50.644;17.984;2024-02-21T02:10:02;13.20;;;6.70;;
69588;SDS011;56792;50.644;17.984;2024-02-21T02:12:35;10.60;;;5.50;;
69588;SDS011;56792;50.644;17.984;2024-02-21T02:15:07;12.70;;;6.40;;
69588;SDS011;56792;50.644;17.984;2024-02-21T02:17:39;13.00;;;6.90;;
69588;SDS011;56792;50.644;17.984;2024-02-21T02:20:12;17.50;;;7.00;;
69588;SDS011;56792;50.644;17.984;2024-02-21T02:22:45;13.60;;;6.30;;
69588;SDS011;56792;50.644;17.984;2024-02-21T02:25:18;11.30;;;5.60;;
69588;SDS011;56792;50.644;17.984;2024-02-21T02:27:50;17.20;;;6.20;;
69588;SDS011;56792;50.644;17.984;2024-02-21T02:30:21;10.30;;;5.90;;
69588;SDS011;56792;50.644;17.984;2024-02-21T02:32:53;11.60;;;5.60;;
69588;SDS011;56792;50.644;17.984;2024-02-21T02:35:24;12.30;;;6.10;;
69588;SDS011;56792;50.644;17.984;2024-02-21T02:37:56;14.40;;;6.70;;
69588;SDS011;56792;50.644;17.984;2024-02-21T02:40:27;13.30;;;6.70;;
69588;SDS011;56792;50.644;17.984;2024-02-21T02:42:59;13.60;;;6.10;;
69588;SDS011;56792;50.644;17.984;2024-02-21T02:45:32;10.30;;;5.80;;
69588;SDS011;56792;50.644;17.984;2024-02-21T02:48:04;9.50;;;5.40;;
69588;SDS011;56792;50.644;17.984;2024-02-21T02:50:36;16.00;;;6.00;;
69588;SDS011;56792;50.644;17.984;2024-02-21T02:53:08;12.40;;;6.10;;
69588;SDS011;56792;50.644;17.984;2024-02-21T02:55:39;12.90;;;6.30;;
69588;SDS011;56792;50.644;17.984;2024-02-21T02:58:11;12.80;;;6.20;;
69588;SDS011;56792;50.644;17.984;2024-02-21T03:00:43;10.00;;;6.00;;
69588;SDS011;56792;50.644;17.984;2024-02-21T03:03:14;8.60;;;5.90;;
69588;SDS011;56792;50.644;17.984;2024-02-21T03:05:47;12.50;;;6.10;;
69588;SDS011;56792;50.644;17.984;2024-02-21T03:08:18;11.30;;;5.80;;
69588;SDS011;56792;50.644;17.984;2024-02-21T03:10:51;13.00;;;6.30;;
69588;SDS011;56792;50.644;17.984;2024-02-21T03:13:22;14.40;;;6.10;;
69588;SDS011;56792;50.644;17.984;2024-02-21T03:15:54;13.70;;;6.20;;
69588;SDS011;56792;50.644;17.984;2024-02-21T03:18:25;10.40;;;5.40;;
69588;SDS011;56792;50.644;17.984;2024-02-21T03:20:57;17.00;;;6.00;;
69588;SDS011;56792;50.644;17.984;2024-02-21T03:23:28;13.30;;;6.10;;
69588;SDS011;56792;50.644;17.984;2024-02-21T03:26:00;13.20;;;5.90;;
69588;SDS011;56792;50.644;17.984;2024-02-21T03:28:31;12.60;;;6.10;;
69588;SDS011;56792;50.644;17.984;2024-02-21T03:31:03;13.80;;;6.40;;
69588;SDS011;56792;50.644;17.984;2024-02-21T03:33:34;11.70;;;5.70;;
69588;SDS011;56792;50.644;17.984;2024-02-21T03:36:07;13.30;;;6.10;;
69588;SDS011;56792;50.644;17.984;2024-02-21T03:38:44;14.00;;;6.00;;
69588;SDS011;56792;50.644;17.984;2024-02-21T03:41:16;16.10;;;7.30;;
69588;SDS011;56792;50.644;17.984;2024-02-21T03:43:47;14.80;;;6.70;;
69588;SDS011;56792;50.644;17.984;2024-02-21T03:46:19;14.90;;;7.00;;
69588;SDS011;56792;50.644;17.984;2024-02-21T03:48:51;14.90;;;7.20;;
69588;SDS011;56792;50.644;17.984;2024-02-21T03:51:22;11.70;;;6.20;;
69588;SDS011;56792;50.644;17.984;2024-02-21T03:53:54;13.60;;;6.30;;
69588;SDS011;56792;50.644;17.984;2024-02-21T03:56:25;15.60;;;6.70;;
69588;SDS011;56792;50.644;17.984;2024-02-21T03:58:57;11.50;;;5.40;;
69588;SDS011;56792;50.644;17.984;2024-02-21T04:01:29;14.00;;;6.70;;
69588;SDS011;56792;50.644;17.984;2024-02-21T04:04:00;12.60;;;6.40;;
69588;SDS011;56792;50.644;17.984;2024-02-21T04:06:32;12.60;;;6.40;;
69588;SDS011;56792;50.644;17.984;2024-02-21T04:09:03;10.80;;;6.20;;
69588;SDS011;56792;50.644;17.984;2024-02-21T04:11:35;13.00;;;6.90;;
69588;SDS011;56792;50.644;17.984;2024-02-21T04:14:06;12.90;;;6.20;;
69588;SDS011;56792;50.644;17.984;2024-02-21T04:16:39;12.40;;;6.60;;
69588;SDS011;56792;50.644;17.984;2024-02-21T04:19:11;14.90;;;6.80;;
69588;SDS011;56792;50.644;17.984;2024-02-21T04:21:42;13.50;;;6.00;;
69588;SDS011;56792;50.644;17.984;2024-02-21T04:24:14;12.20;;;6.60;;
69588;SDS011;56792;50.644;17.984;2024-02-21T04:26:45;12.20;;;6.40;;
69588;SDS011;56792;50.644;17.984;2024-02-21T04:29:17;12.30;;;6.20;;
69588;SDS011;56792;50.644;17.984;2024-02-21T04:31:49;12.40;;;6.50;;
69588;SDS011;56792;50.644;17.984;2024-02-21T04:34:20;10.90;;;6.10;;
69588;SDS011;56792;50.644;17.984;2024-02-21T04:36:52;10.90;;;5.80;;
69588;SDS011;56792;50.644;17.984;2024-02-21T04:39:23;11.80;;;6.10;;
69588;SDS011;56792;50.644;17.984;2024-02-21T04:41:55;13.00;;;5.70;;
69588;SDS011;56792;50.644;17.984;2024-02-21T04:44:26;12.80;;;6.50;;
69588;SDS011;56792;50.644;17.984;2024-02-21T04:46:58;13.20;;;5.60;;
69588;SDS011;56792;50.644;17.984;2024-02-21T04:49:29;10.90;;;5.90;;
69588;SDS011;56792;50.644;17.984;2024-02-21T04:52:01;12.90;;;6.70;;
69588;SDS011;56792;50.644;17.984;2024-02-21T04:54:32;14.70;;;6.80;;
69588;SDS011;56792;50.644;17.984;2024-02-21T04:57:05;15.10;;;6.80;;
69588;SDS011;56792;50.644;17.984;2024-02-21T04:59:38;15.30;;;5.80;;
69588;SDS011;56792;50.644;17.984;2024-02-21T05:02:10;13.20;;;6.00;;
69588;SDS011;56792;50.644;17.984;2024-02-21T05:04:41;13.10;;;6.60;;
69588;SDS011;56792;50.644;17.984;2024-02-21T05:07:13;9.70;;;6.30;;
69588;SDS011;56792;50.644;17.984;2024-02-21T05:09:45;10.70;;;6.50;;
69588;SDS011;56792;50.644;17.984;2024-02-21T05:12:16;12.70;;;7.20;;
69588;SDS011;56792;50.644;17.984;2024-02-21T05:14:48;11.60;;;6.60;;
69588;SDS011;56792;50.644;17.984;2024-02-21T05:17:20;12.40;;;6.90;;
69588;SDS011;56792;50.644;17.984;2024-02-21T05:19:51;13.70;;;6.40;;
69588;SDS011;56792;50.644;17.984;2024-02-21T05:22:23;11.40;;;6.80;;
69588;SDS011;56792;50.644;17.984;2024-02-21T05:24:54;12.50;;;5.80;;
69588;SDS011;56792;50.644;17.984;2024-02-21T05:27:26;11.20;;;6.60;;
69588;SDS011;56792;50.644;17.984;2024-02-21T05:29:57;12.40;;;6.30;;
69588;SDS011;56792;50.644;17.984;2024-02-21T05:32:29;14.40;;;6.30;;
69588;SDS011;56792;50.644;17.984;2024-02-21T05:35:00;16.90;;;6.40;;
69588;SDS011;56792;50.644;17.984;2024-02-21T05:37:32;10.80;;;5.70;;
69588;SDS011;56792;50.644;17.984;2024-02-21T05:40:04;11.00;;;5.70;;
69588;SDS011;56792;50.644;17.984;2024-02-21T05:42:37;12.20;;;6.00;;
69588;SDS011;56792;50.644;17.984;2024-02-21T05:45:09;16.40;;;6.20;;
69588;SDS011;56792;50.644;17.984;2024-02-21T05:47:41;11.30;;;6.00;;
69588;SDS011;56792;50.644;17.984;2024-02-21T05:50:13;10.90;;;5.70;;
69588;SDS011;56792;50.644;17.984;2024-02-21T05:52:45;14.20;;;6.30;;
69588;SDS011;56792;50.644;17.984;2024-02-21T05:55:17;13.70;;;6.20;;
69588;SDS011;56792;50.644;17.984;2024-02-21T05:57:49;14.60;;;7.20;;
69588;SDS011;56792;50.644;17.984;2024-02-21T06:00:23;12.30;;;6.60;;
69588;SDS011;56792;50.644;17.984;2024-02-21T06:02:54;12.40;;;5.80;;
69588;SDS011;56792;50.644;17.984;2024-02-21T06:05:26;12.00;;;6.80;;
69588;SDS011;56792;50.644;17.984;2024-02-21T06:07:57;14.80;;;6.90;;
69588;SDS011;56792;50.644;17.984;2024-02-21T06:10:29;12.40;;;6.70;;
69588;SDS011;56792;50.644;17.984;2024-02-21T06:13:00;15.80;;;7.70;;
69588;SDS011;56792;50.644;17.984;2024-02-21T06:15:32;14.70;;;7.40;;
69588;SDS011;56792;50.644;17.984;2024-02-21T06:18:04;14.20;;;7.60;;
69588;SDS011;56792;50.644;17.984;2024-02-21T06:20:35;16.50;;;8.00;;
69588;SDS011;56792;50.644;17.984;2024-02-21T06:23:08;16.10;;;7.20;;
69588;SDS011;56792;50.644;17.984;2024-02-21T06:25:40;13.00;;;7.60;;
69588;SDS011;56792;50.644;17.984;2024-02-21T06:28:12;16.60;;;7.90;;
69588;SDS011;56792;50.644;17.984;2024-02-21T06:30:43;14.50;;;8.20;;
69588;SDS011;56792;50.644;17.984;2024-02-21T06:33:15;12.10;;;8.10;;
69588;SDS011;56792;50.644;17.984;2024-02-21T06:35:46;19.70;;;8.20;;
69588;SDS011;56792;50.644;17.984;2024-02-21T06:38:20;16.70;;;7.90;;
69588;SDS011;56792;50.644;17.984;2024-02-21T06:40:52;16.10;;;7.70;;
69588;SDS011;56792;50.644;17.984;2024-02-21T06:43:23;15.20;;;8.30;;
69588;SDS011;56792;50.644;17.984;2024-02-21T06:45:55;16.30;;;8.30;;
69588;SDS011;56792;50.644;17.984;2024-02-21T06:48:26;17.60;;;8.30;;
69588;SDS011;56792;50.644;17.984;2024-02-21T06:50:58;17.50;;;8.90;;
69588;SDS011;56792;50.644;17.984;2024-02-21T06:53:29;16.60;;;8.20;;
69588;SDS011;56792;50.644;17.984;2024-02-21T06:56:01;14.70;;;8.50;;
69588;SDS011;56792;50.644;17.984;2024-02-21T06:58:32;20.30;;;9.30;;
69588;SDS011;56792;50.644;17.984;2024-02-21T07:01:04;18.20;;;9.60;;
69588;SDS011;56792;50.644;17.984;2024-02-21T07:03:36;18.80;;;9.80;;
69588;SDS011;56792;50.644;17.984;2024-02-21T07:06:07;15.20;;;8.80;;
69588;SDS011;56792;50.644;17.984;2024-02-21T07:08:39;17.00;;;8.00;;
69588;SDS011;56792;50.644;17.984;2024-02-21T07:11:10;13.90;;;8.70;;
69588;SDS011;56792;50.644;17.984;2024-02-21T07:13:42;14.50;;;8.00;;
69588;SDS011;56792;50.644;17.984;2024-02-21T07:16:13;20.00;;;9.30;;
69588;SDS011;56792;50.644;17.984;2024-02-21T07:18:45;18.40;;;9.10;;
69588;SDS011;56792;50.644;17.984;2024-02-21T07:21:16;13.80;;;7.70;;
69588;SDS011;56792;50.644;17.984;2024-02-21T07:23:48;15.30;;;8.30;;
69588;SDS011;56792;50.644;17.984;2024-02-21T07:26:19;14.90;;;7.90;;
69588;SDS011;56792;50.644;17.984;2024-02-21T07:28:51;13.90;;;8.00;;
69588;SDS011;56792;50.644;17.984;2024-02-21T07:31:22;13.60;;;7.20;;
69588;SDS011;56792;50.644;17.984;2024-02-21T07:33:54;16.60;;;7.80;;
69588;SDS011;56792;50.644;17.984;2024-02-21T07:36:29;16.50;;;8.10;;
69588;SDS011;56792;50.644;17.984;2024-02-21T07:39:01;15.50;;;7.60;;
69588;SDS011;56792;50.644;17.984;2024-02-21T07:41:33;13.50;;;7.60;;
69588;SDS011;56792;50.644;17.984;2024-02-21T07:44:05;15.10;;;7.60;;
69588;SDS011;56792;50.644;17.984;2024-02-21T07:46:36;13.80;;;9.20;;
69588;SDS011;56792;50.644;17.984;2024-02-21T07:49:07;15.50;;;8.30;;
69588;SDS011;56792;50.644;17.984;2024-02-21T07:51:39;16.80;;;8.90;;
69588;SDS011;56792;50.644;17.984;2024-02-21T07:54:11;15.30;;;9.20;;
69588;SDS011;56792;50.644;17.984;2024-02-21T07:56:42;17.00;;;8.90;;
69588;SDS011;56792;50.644;17.984;2024-02-21T07:59:14;18.20;;;9.40;;
69588;SDS011;56792;50.644;17.984;2024-02-21T08:01:46;13.80;;;8.20;;
69588;SDS011;56792;50.644;17.984;2024-02-21T08:04:17;17.80;;;9.20;;
69588;SDS011;56792;50.644;17.984;2024-02-21T08:06:52;17.80;;;9.10;;
69588;SDS011;56792;50.644;17.984;2024-02-21T08:09:27;13.50;;;8.70;;
69588;SDS011;56792;50.644;17.984;2024-02-21T08:11:59;15.40;;;8.50;;
69588;SDS011;56792;50.644;17.984;2024-02-21T08:14:30;15.70;;;7.80;;
69588;SDS011;56792;50.644;17.984;2024-02-21T08:17:02;13.80;;;8.60;;
69588;SDS011;56792;50.644;17.984;2024-02-21T08:19:33;14.10;;;7.90;;
69588;SDS011;56792;50.644;17.984;2024-02-21T08:22:05;15.50;;;8.00;;
69588;SDS011;56792;50.644;17.984;2024-02-21T08:24:36;13.10;;;7.40;;
69588;SDS011;56792;50.644;17.984;2024-02-21T08:27:08;16.40;;;8.40;;
69588;SDS011;56792;50.644;17.984;2024-02-21T08:29:40;15.70;;;8.40;;
69588;SDS011;56792;50.644;17.984;2024-02-21T08:32:11;15.10;;;7.80;;
69588;SDS011;56792;50.644;17.984;2024-02-21T08:34:43;13.50;;;7.80;;
69588;SDS011;56792;50.644;17.984;2024-02-21T08:37:14;16.70;;;8.90;;
69588;SDS011;56792;50.644;17.984;2024-02-21T08:39:46;13.90;;;8.40;;
69588;SDS011;56792;50.644;17.984;2024-02-21T08:42:18;14.30;;;8.60;;
69588;SDS011;56792;50.644;17.984;2024-02-21T08:44:49;14.90;;;8.10;;
69588;SDS011;56792;50.644;17.984;2024-02-21T08:47:21;15.50;;;8.20;;
69588;SDS011;56792;50.644;17.984;2024-02-21T08:49:52;19.10;;;9.00;;
69588;SDS011;56792;50.644;17.984;2024-02-21T08:52:24;17.80;;;9.40;;
69588;SDS011;56792;50.644;17.984;2024-02-21T08:54:56;18.50;;;9.10;;
69588;SDS011;56792;50.644;17.984;2024-02-21T08:57:27;18.10;;;9.40;;
69588;SDS011;56792;50.644;17.984;2024-02-21T09:00:06;21.90;;;9.20;;
69588;SDS011;56792;50.644;17.984;2024-02-21T09:02:41;16.10;;;8.20;;
69588;SDS011;56792;50.644;17.984;2024-02-21T09:05:13;16.50;;;8.20;;
69588;SDS011;56792;50.644;17.984;2024-02-21T09:07:45;13.90;;;7.80;;
69588;SDS011;56792;50.644;17.984;2024-02-21T09:10:17;10.40;;;6.70;;
69588;SDS011;56792;50.644;17.984;2024-02-21T09:12:48;9.90;;;6.40;;
69588;SDS011;56792;50.644;17.984;2024-02-21T09:15:20;11.60;;;7.40;;
69588;SDS011;56792;50.644;17.984;2024-02-21T09:17:52;11.90;;;6.50;;
69588;SDS011;56792;50.644;17.984;2024-02-21T09:20:24;12.80;;;7.10;;
69588;SDS011;56792;50.644;17.984;2024-02-21T09:22:55;11.50;;;6.70;;
69588;SDS011;56792;50.644;17.984;2024-02-21T09:25:27;15.60;;;9.30;;
69588;SDS011;56792;50.644;17.984;2024-02-21T09:28:00;14.50;;;7.60;;
69588;SDS011;56792;50.644;17.984;2024-02-21T09:30:34;13.10;;;7.40;;
69588;SDS011;56792;50.644;17.984;2024-02-21T09:33:06;15.70;;;6.70;;
69588;SDS011;56792;50.644;17.984;2024-02-21T09:35:38;14.30;;;8.40;;
69588;SDS011;56792;50.644;17.984;2024-02-21T09:38:09;15.40;;;7.00;;
69588;SDS011;56792;50.644;17.984;2024-02-21T09:40:41;11.00;;;5.80;;
69588;SDS011;56792;50.644;17.984;2024-02-21T09:43:15;11.10;;;5.80;;
69588;SDS011;56792;50.644;17.984;2024-02-21T09:45:49;12.90;;;6.40;;
69588;SDS011;56792;50.644;17.984;2024-02-21T09:48:41;11.30;;;6.50;;
69588;SDS011;56792;50.644;17.984;2024-02-21T09:51:29;14.10;;;6.70;;
69588;SDS011;56792;50.644;17.984;2024-02-21T09:54:02;10.80;;;5.90;;
69588;SDS011;56792;50.644;17.984;2024-02-21T09:56:35;17.60;;;7.70;;
69588;SDS011;56792;50.644;17.984;2024-02-21T09:59:06;13.30;;;7.10;;
69588;SDS011;56792;50.644;17.984;2024-02-21T10:01:39;12.00;;;6.60;;
69588;SDS011;56792;50.644;17.984;2024-02-21T10:04:11;15.80;;;7.70;;
69588;SDS011;56792;50.644;17.984;2024-02-21T10:06:43;16.50;;;7.40;;
69588;SDS011;56792;50.644;17.984;2024-02-21T10:09:23;13.00;;;7.90;;
69588;SDS011;56792;50.644;17.984;2024-02-21T10:11:56;15.10;;;6.80;;
69588;SDS011;56792;50.644;17.984;2024-02-21T10:14:39;17.00;;;8.90;;
69588;SDS011;56792;50.644;17.984;2024-02-21T10:17:17;14.00;;;7.60;;
69588;SDS011;56792;50.644;17.984;2024-02-21T10:19:48;11.60;;;7.40;;
69588;SDS011;56792;50.644;17.984;2024-02-21T10:22:20;15.00;;;7.50;;
69588;SDS011;56792;50.644;17.984;2024-02-21T10:24:53;12.40;;;6.90;;
69588;SDS011;56792;50.644;17.984;2024-02-21T10:27:25;10.50;;;6.60;;
69588;SDS011;56792;50.644;17.984;2024-02-21T10:29:57;11.50;;;7.50;;
69588;SDS011;56792;50.644;17.984;2024-02-21T10:32:28;11.60;;;6.60;;
69588;SDS011;56792;50.644;17.984;2024-02-21T10:35:06;12.60;;;6.30;;
69588;SDS011;56792;50.644;17.984;2024-02-21T10:37:38;13.40;;;6.70;;
69588;SDS011;56792;50.644;17.984;2024-02-21T10:40:11;19.10;;;8.80;;
69588;SDS011;56792;50.644;17.984;2024-02-21T10:42:43;17.40;;;9.30;;
69588;SDS011;56792;50.644;17.984;2024-02-21T10:45:17;14.00;;;8.20;;
69588;SDS011;56792;50.644;17.984;2024-02-21T10:47:54;17.40;;;9.20;;
69588;SDS011;56792;50.644;17.984;2024-02-21T10:50:32;18.20;;;9.10;;
69588;SDS011;56792;50.644;17.984;2024-02-21T10:53:23;14.90;;;8.30;;
69588;SDS011;56792;50.644;17.984;2024-02-21T10:56:10;16.30;;;9.20;;
69588;SDS011;56792;50.644;17.984;2024-02-21T10:58:47;19.00;;;9.30;;
69588;SDS011;56792;50.644;17.984;2024-02-21T11:01:20;18.00;;;10.20;;
69588;SDS011;56792;50.644;17.984;2024-02-21T11:03:55;18.80;;;10.70;;
69588;SDS011;56792;50.644;17.984;2024-02-21T11:06:28;18.70;;;10.00;;
69588;SDS011;56792;50.644;17.984;2024-02-21T11:09:05;21.40;;;10.20;;
69588;SDS011;56792;50.644;17.984;2024-02-21T11:11:39;22.70;;;10.20;;
69588;SDS011;56792;50.644;17.984;2024-02-21T11:14:18;16.60;;;8.70;;
69588;SDS011;56792;50.644;17.984;2024-02-21T11:16:51;14.30;;;7.70;;
69588;SDS011;56792;50.644;17.984;2024-02-21T11:19:24;14.80;;;7.70;;
69588;SDS011;56792;50.644;17.984;2024-02-21T11:21:57;13.50;;;7.50;;
69588;SDS011;56792;50.644;17.984;2024-02-21T11:24:30;15.40;;;7.80;;
69588;SDS011;56792;50.644;17.984;2024-02-21T11:27:11;12.10;;;7.30;;
69588;SDS011;56792;50.644;17.984;2024-02-21T11:29:44;14.90;;;7.70;;
69588;SDS011;56792;50.644;17.984;2024-02-21T11:32:17;12.50;;;7.60;;
69588;SDS011;56792;50.644;17.984;2024-02-21T11:35:00;10.90;;;7.40;;
69588;SDS011;56792;50.644;17.984;2024-02-21T11:37:34;14.50;;;7.50;;
69588;SDS011;56792;50.644;17.984;2024-02-21T11:40:07;13.10;;;7.20;;
69588;SDS011;56792;50.644;17.984;2024-02-21T11:42:40;11.60;;;7.80;;
69588;SDS011;56792;50.644;17.984;2024-02-21T11:45:14;10.30;;;6.90;;
69588;SDS011;56792;50.644;17.984;2024-02-21T11:47:46;12.60;;;7.10;;
69588;SDS011;56792;50.644;17.984;2024-02-21T11:50:18;13.70;;;6.40;;
69588;SDS011;56792;50.644;17.984;2024-02-21T11:52:50;11.60;;;7.30;;
69588;SDS011;56792;50.644;17.984;2024-02-21T11:55:23;10.50;;;7.20;;
69588;SDS011;56792;50.644;17.984;2024-02-21T11:57:55;12.40;;;6.90;;
69588;SDS011;56792;50.644;17.984;2024-02-21T12:00:27;14.00;;;7.30;;
69588;SDS011;56792;50.644;17.984;2024-02-21T12:03:00;13.90;;;7.70;;
69588;SDS011;56792;50.644;17.984;2024-02-21T12:05:32;12.20;;;7.60;;
69588;SDS011;56792;50.644;17.984;2024-02-21T12:08:05;11.20;;;7.70;;
69588;SDS011;56792;50.644;17.984;2024-02-21T12:10:37;15.30;;;7.90;;
69588;SDS011;56792;50.644;17.984;2024-02-21T12:13:09;12.50;;;7.10;;
69588;SDS011;56792;50.644;17.984;2024-02-21T12:15:41;15.80;;;8.20;;
69588;SDS011;56792;50.644;17.984;2024-02-21T12:18:17;13.80;;;8.10;;
69588;SDS011;56792;50.644;17.984;2024-02-21T12:20:51;15.00;;;8.20;;
69588;SDS011;56792;50.644;17.984;2024-02-21T12:23:22;12.90;;;8.20;;
69588;SDS011;56792;50.644;17.984;2024-02-21T12:25:56;15.70;;;8.50;;
69588;SDS011;56792;50.644;17.984;2024-02-21T12:28:28;15.00;;;7.80;;
69588;SDS011;56792;50.644;17.984;2024-02-21T12:31:00;13.50;;;7.60;;
69588;SDS011;56792;50.644;17.984;2024-02-21T12:33:33;11.30;;;7.30;;
69588;SDS011;56792;50.644;17.984;2024-02-21T12:36:05;10.20;;;6.60;;
69588;SDS011;56792;50.644;17.984;2024-02-21T12:38:37;11.20;;;7.80;;
69588;SDS011;56792;50.644;17.984;2024-02-21T12:41:08;11.70;;;7.00;;
69588;SDS011;56792;50.644;17.984;2024-02-21T12:43:40;11.10;;;7.30;;
69588;SDS011;56792;50.644;17.984;2024-02-21T12:46:11;15.70;;;8.40;;
69588;SDS011;56792;50.644;17.984;2024-02-21T12:48:43;17.50;;;9.30;;
69588;SDS011;56792;50.644;17.984;2024-02-21T12:51:14;17.40;;;8.10;;
69588;SDS011;56792;50.644;17.984;2024-02-21T12:53:49;19.00;;;8.70;;
69588;SDS011;56792;50.644;17.984;2024-02-21T12:56:21;20.60;;;10.50;;
69588;SDS011;56792;50.644;17.984;2024-02-21T12:58:52;16.70;;;9.20;;
69588;SDS011;56792;50.644;17.984;2024-02-21T13:01:24;18.20;;;9.90;;
69588;SDS011;56792;50.644;17.984;2024-02-21T13:03:56;17.70;;;9.60;;
69588;SDS011;56792;50.644;17.984;2024-02-21T13:06:29;18.40;;;9.20;;
69588;SDS011;56792;50.644;17.984;2024-02-21T13:09:01;34.60;;;15.10;;
69588;SDS011;56792;50.644;17.984;2024-02-21T13:11:36;29.50;;;12.60;;
69588;SDS011;56792;50.644;17.984;2024-02-21T13:14:09;16.50;;;9.50;;
69588;SDS011;56792;50.644;17.984;2024-02-21T13:16:40;14.40;;;8.70;;
69588;SDS011;56792;50.644;17.984;2024-02-21T13:19:11;15.40;;;8.50;;
69588;SDS011;56792;50.644;17.984;2024-02-21T13:21:45;12.10;;;8.00;;
69588;SDS011;56792;50.644;17.984;2024-02-21T13:24:17;15.10;;;8.80;;
69588;SDS011;56792;50.644;17.984;2024-02-21T13:26:48;18.80;;;8.90;;
69588;SDS011;56792;50.644;17.984;2024-02-21T13:29:20;13.90;;;8.80;;
69588;SDS011;56792;50.644;17.984;2024-02-21T13:31:51;12.30;;;8.60;;
69588;SDS011;56792;50.644;17.984;2024-02-21T13:34:23;12.80;;;8.00;;
69588;SDS011;56792;50.644;17.984;2024-02-21T13:36:54;13.80;;;8.50;;
69588;SDS011;56792;50.644;17.984;2024-02-21T13:39:27;15.10;;;8.10;;
69588;SDS011;56792;50.644;17.984;2024-02-21T13:42:03;12.40;;;6.60;;
69588;SDS011;56792;50.644;17.984;2024-02-21T13:44:35;12.40;;;8.10;;
69588;SDS011;56792;50.644;17.984;2024-02-21T13:47:07;14.00;;;7.60;;
69588;SDS011;56792;50.644;17.984;2024-02-21T13:49:39;18.20;;;8.20;;
69588;SDS011;56792;50.644;17.984;2024-02-21T13:52:11;14.20;;;8.90;;
69588;SDS011;56792;50.644;17.984;2024-02-21T13:54:42;13.30;;;8.30;;
69588;SDS011;56792;50.644;17.984;2024-02-21T13:57:14;13.00;;;8.20;;
69588;SDS011;56792;50.644;17.984;2024-02-21T13:59:45;20.10;;;10.10;;
69588;SDS011;56792;50.644;17.984;2024-02-21T14:02:17;26.70;;;12.30;;
69588;SDS011;56792;50.644;17.984;2024-02-21T14:04:49;25.90;;;11.20;;
69588;SDS011;56792;50.644;17.984;2024-02-21T14:07:21;13.80;;;8.10;;
69588;SDS011;56792;50.644;17.984;2024-02-21T14:09:52;10.90;;;7.20;;
69588;SDS011;56792;50.644;17.984;2024-02-21T14:12:24;13.90;;;8.40;;
69588;SDS011;56792;50.644;17.984;2024-02-21T14:14:55;11.90;;;7.20;;
69588;SDS011;56792;50.644;17.984;2024-02-21T14:17:27;16.60;;;9.10;;
69588;SDS011;56792;50.644;17.984;2024-02-21T14:19:58;16.70;;;9.60;;
69588;SDS011;56792;50.644;17.984;2024-02-21T14:22:30;30.00;;;14.00;;
69588;SDS011;56792;50.644;17.984;2024-02-21T14:25:02;26.70;;;15.00;;
69588;SDS011;56792;50.644;17.984;2024-02-21T14:27:34;61.30;;;25.50;;
69588;SDS011;56792;50.644;17.984;2024-02-21T14:30:07;102.80;;;39.70;;
69588;SDS011;56792;50.644;17.984;2024-02-21T14:32:44;42.90;;;19.20;;
69588;SDS011;56792;50.644;17.984;2024-02-21T14:35:16;39.50;;;17.60;;
69588;SDS011;56792;50.644;17.984;2024-02-21T14:37:47;32.80;;;15.30;;
69588;SDS011;56792;50.644;17.984;2024-02-21T14:40:20;37.40;;;15.50;;
69588;SDS011;56792;50.644;17.984;2024-02-21T14:42:52;31.10;;;15.30;;
69588;SDS011;56792;50.644;17.984;2024-02-21T14:45:23;29.70;;;16.20;;
69588;SDS011;56792;50.644;17.984;2024-02-21T14:47:55;20.80;;;11.50;;
69588;SDS011;56792;50.644;17.984;2024-02-21T14:50:26;19.70;;;11.00;;